Time;durP1;ratioP1;P1;durP2;ratioP2;P2;SDS_P1;SDS_P2;PMS_P1;PMS_P2;Temp;Humidity;BMP_temperature;BMP_pressure;BME280_temperature;BME280_humidity;BME280_pressure;Samples;Min_cycle;Max_cycle;Signal;HPM_P1;HPM_P2
2022/04/22 00:01:09;;;;;;;6.68;4.05;;;;;;;9.31;87.54;101302.19;5046051;28;20157;-68
2022/04/22 00:03:34;;;;;;;8.23;4.13;;;;;;;9.24;87.42;101296.25;5047053;28;20036;-68
2022/04/22 00:06:01;;;;;;;5.40;3.75;;;;;;;9.20;87.74;101294.59;5049693;28;20115;-69
2022/04/22 00:08:26;;;;;;;8.93;3.75;;;;;;;9.15;87.64;101301.84;5051180;28;20185;-68
2022/04/22 00:13:36;;;;;;;8.68;4.32;;;;;;;9.02;88.09;101296.94;5035640;28;20063;-67
2022/04/22 00:16:03;;;;;;;8.15;3.78;;;;;;;8.99;88.88;101289.09;5050433;28;20050;-68
2022/04/22 00:18:28;;;;;;;8.70;4.50;;;;;;;8.94;89.03;101291.03;5042441;28;20032;-67
2022/04/22 00:20:54;;;;;;;5.85;3.33;;;;;;;8.92;89.24;101293.72;5048422;28;20039;-67
2022/04/22 00:23:19;;;;;;;8.02;4.28;;;;;;;8.89;89.46;101285.03;5049554;28;20029;-67
2022/04/22 00:25:45;;;;;;;7.47;4.32;;;;;;;8.86;89.26;101282.47;5050578;28;20093;-67
2022/04/22 00:28:11;;;;;;;6.22;4.10;;;;;;;8.82;90.09;101290.50;5023870;28;20029;-67
2022/04/22 00:30:37;;;;;;;7.85;4.60;;;;;;;8.80;89.65;101289.69;5050238;28;20032;-67
2022/04/22 00:33:04;;;;;;;6.88;3.67;;;;;;;8.77;89.71;101286.28;5050664;28;20507;-67
2022/04/22 00:35:29;;;;;;;6.35;4.38;;;;;;;8.73;89.79;101282.88;5048837;28;20059;-67
2022/04/22 00:37:54;;;;;;;6.40;4.13;;;;;;;8.70;90.32;101280.31;5049804;28;20120;-68
2022/04/22 00:40:20;;;;;;;6.95;4.18;;;;;;;8.67;90.78;101275.97;5048051;28;20035;-67
2022/04/22 00:42:46;;;;;;;8.05;3.80;;;;;;;8.66;90.72;101283.97;5049690;28;20059;-67
2022/04/22 00:45:12;;;;;;;7.18;4.13;;;;;;;8.63;90.53;101273.50;5049245;28;20119;-67
2022/04/22 00:47:38;;;;;;;7.75;4.20;;;;;;;8.61;90.68;101275.31;5049456;28;20543;-68
2022/04/22 00:50:04;;;;;;;6.45;4.03;;;;;;;8.59;90.78;101266.56;5047400;28;20039;-68
2022/04/22 00:52:30;;;;;;;9.23;4.40;;;;;;;8.54;91.04;101272.88;5049534;28;20028;-67
2022/04/22 00:54:55;;;;;;;9.52;4.07;;;;;;;8.53;91.50;101278.19;5049398;28;20043;-67
2022/04/22 00:57:21;;;;;;;8.45;4.03;;;;;;;8.52;92.08;101276.47;5049250;28;20109;-68
2022/04/22 00:59:47;;;;;;;8.32;4.35;;;;;;;8.49;91.49;101272.09;5049153;28;20039;-68
2022/04/22 01:02:13;;;;;;;6.95;4.28;;;;;;;8.47;91.91;101273.94;5048767;28;20029;-68
2022/04/22 01:10:08;;;;;;;5.30;3.75;;;;;;;8.44;91.52;101258.16;5048914;28;20032;-68
2022/04/22 01:12:34;;;;;;;12.35;4.30;;;;;;;8.43;92.76;101261.72;5050189;28;20047;-68
2022/04/22 01:14:59;;;;;;;7.80;4.43;;;;;;;8.43;92.80;101257.31;5047238;28;20479;-68
2022/04/22 01:17:26;;;;;;;9.02;4.65;;;;;;;8.42;92.67;101254.72;5065850;28;20078;-68
2022/04/22 01:19:51;;;;;;;8.73;4.50;;;;;;;8.41;93.13;101259.13;5049754;28;20036;-68
2022/04/22 01:22:17;;;;;;;6.80;3.90;;;;;;;8.40;92.59;101256.56;5048471;28;20058;-68
2022/04/22 01:24:42;;;;;;;8.10;4.68;;;;;;;8.39;93.70;101247.75;5049850;28;20052;-68
2022/04/22 01:27:10;;;;;;;7.43;4.00;;;;;;;8.38;94.33;101253.94;5047278;28;20037;-68
2022/04/22 01:29:35;;;;;;;6.70;4.40;;;;;;;8.40;94.18;101251.28;5045367;28;20033;-68
2022/04/22 01:32:01;;;;;;;8.02;4.38;;;;;;;8.39;93.87;101249.56;5029234;28;20303;-68
2022/04/22 01:34:27;;;;;;;7.38;4.10;;;;;;;8.37;94.11;101251.34;5052508;28;20059;-68
2022/04/22 01:36:52;;;;;;;8.23;4.65;;;;;;;8.35;94.73;101243.50;5050502;28;20099;-68
2022/04/22 01:39:18;;;;;;;7.78;4.15;;;;;;;8.34;94.77;101246.19;5053872;28;20068;-68
2022/04/22 01:41:43;;;;;;;8.02;4.20;;;;;;;8.30;94.64;101234.84;5035359;28;20046;-68
2022/04/22 01:44:09;;;;;;;7.75;4.70;;;;;;;8.27;94.16;101230.53;5054017;28;20040;-68
2022/04/22 01:46:35;;;;;;;12.45;4.68;;;;;;;8.25;94.77;101237.63;5027919;28;20062;-68
2022/04/22 01:49:02;;;;;;;7.65;4.13;;;;;;;8.20;94.51;101228.97;5029792;28;20039;-68
2022/04/22 01:51:27;;;;;;;9.23;4.97;;;;;;;8.18;94.59;101238.72;5050981;28;20028;-68
2022/04/22 01:53:53;;;;;;;8.07;4.35;;;;;;;8.14;94.91;101223.88;5053509;28;20151;-67
2022/04/22 01:56:19;;;;;;;8.30;4.40;;;;;;;8.10;94.88;101228.38;5052743;28;20491;-68
2022/04/22 01:58:44;;;;;;;8.60;4.63;;;;;;;8.08;94.85;101226.69;5067696;28;20135;-68
2022/04/22 02:01:10;;;;;;;7.18;4.22;;;;;;;8.05;95.34;101235.56;5061958;28;20037;-68
2022/04/22 02:03:36;;;;;;;7.28;4.30;;;;;;;8.03;95.28;101234.75;5053343;28;20067;-68
2022/04/22 02:06:02;;;;;;;6.13;4.13;;;;;;;7.99;95.32;101226.06;5050536;28;20486;-68
2022/04/22 02:08:27;;;;;;;8.10;4.53;;;;;;;7.96;95.09;101225.28;5044017;28;20060;-67
2022/04/22 02:10:53;;;;;;;8.82;4.20;;;;;;;7.93;95.67;101231.50;5052644;28;20291;-67
2022/04/22 02:13:21;;;;;;;6.50;4.05;;;;;;;7.90;95.35;101214.91;5050704;28;20028;-67
2022/04/22 02:15:46;;;;;;;8.88;4.45;;;;;;;7.87;94.41;101221.13;5049745;28;20028;-67
2022/04/22 02:18:12;;;;;;;6.95;4.40;;;;;;;7.83;95.45;101216.84;5050560;28;20097;-67
2022/04/22 02:20:38;;;;;;;8.90;4.70;;;;;;;7.80;96.20;101214.31;5050576;28;20036;-68
2022/04/22 02:23:03;;;;;;;9.50;4.43;;;;;;;7.78;96.48;101226.66;5053023;28;20395;-67
2022/04/22 02:25:29;;;;;;;8.00;4.78;;;;;;;7.77;96.77;101222.28;5034483;28;20037;-67
2022/04/22 02:30:38;;;;;;;7.07;4.53;;;;;;;7.70;96.98;101213.69;5052745;28;20044;-68
2022/04/22 02:33:04;;;;;;;9.73;4.80;;;;;;;7.70;97.09;101206.66;5052697;28;20041;-67
2022/04/22 02:35:29;;;;;;;8.00;4.82;;;;;;;7.70;97.87;101213.69;5051924;28;20675;-67
2022/04/22 02:37:55;;;;;;;11.63;4.88;;;;;;;7.69;96.80;101210.16;5050851;28;20051;-67
2022/04/22 02:45:49;;;;;;;8.23;4.47;;;;;;;7.61;97.57;101206.88;5052620;28;20617;-68
2022/04/22 02:48:15;;;;;;;5.72;4.07;;;;;;;7.60;96.64;101203.41;5048038;28;20016;-68
2022/04/22 02:50:41;;;;;;;8.15;4.30;;;;;;;7.58;96.52;101210.47;5051610;28;20028;-69
2022/04/22 02:53:06;;;;;;;8.32;4.53;;;;;;;7.57;96.19;101205.25;5052493;28;20399;-68
2022/04/22 02:55:33;;;;;;;5.75;3.90;;;;;;;7.55;96.23;101200.03;5052522;28;20039;-68
2022/04/22 02:57:59;;;;;;;7.65;4.00;;;;;;;7.52;96.15;101201.88;5050024;28;20048;-68
2022/04/22 03:00:25;;;;;;;5.97;3.47;;;;;;;7.50;95.27;101196.66;5050225;28;20147;-68
2022/04/22 03:02:50;;;;;;;9.93;4.00;;;;;;;7.49;95.73;101197.56;5050684;28;20400;-68
2022/04/22 03:05:16;;;;;;;8.18;4.10;;;;;;;7.47;95.13;101189.69;5027807;28;20028;-68
2022/04/22 03:07:41;;;;;;;6.38;3.33;;;;;;;7.45;95.38;101188.88;5048774;28;20358;-68
2022/04/22 03:10:07;;;;;;;6.75;3.70;;;;;;;7.40;94.93;101190.75;5050573;28;20052;-68
2022/04/22 03:12:34;;;;;;;7.57;3.78;;;;;;;7.39;95.05;101196.06;5050200;28;20037;-68
2022/04/22 03:15:00;;;;;;;5.93;3.83;;;;;;;7.36;95.21;101197.03;5051956;28;20118;-68
2022/04/22 03:17:26;;;;;;;6.75;4.25;;;;;;;7.33;95.14;101197.97;5048431;28;20032;-68
2022/04/22 03:19:52;;;;;;;6.00;3.95;;;;;;;7.29;94.97;101201.56;5050983;28;20039;-68
2022/04/22 03:22:17;;;;;;;6.47;4.13;;;;;;;7.27;95.12;101191.97;5049093;28;20033;-68
2022/04/22 03:24:43;;;;;;;6.25;3.92;;;;;;;7.26;94.87;101195.53;5050312;28;20036;-68
2022/04/22 03:27:09;;;;;;;9.32;4.25;;;;;;;7.23;94.58;101187.72;5050194;28;20024;-68
2022/04/22 03:29:38;;;;;;;7.00;3.85;;;;;;;7.20;95.06;101188.66;5051121;28;20035;-68
2022/04/22 03:32:05;;;;;;;6.35;3.97;;;;;;;7.19;95.32;101185.16;5050105;28;20759;-68
2022/04/22 03:34:31;;;;;;;6.03;3.85;;;;;;;7.19;95.05;101193.03;5050438;28;20038;-68
2022/04/22 03:36:59;;;;;;;9.05;3.92;;;;;;;7.18;95.04;101182.53;5048655;28;20040;-67
2022/04/22 03:39:24;;;;;;;5.95;3.97;;;;;;;7.16;95.86;101182.59;5050268;28;20055;-68
2022/04/22 03:41:50;;;;;;;6.63;4.10;;;;;;;7.12;95.31;101186.22;5049887;28;20576;-68
2022/04/22 03:44:16;;;;;;;5.57;4.00;;;;;;;7.10;95.50;101182.75;5051823;28;20021;-67
2022/04/22 03:46:42;;;;;;;8.48;4.05;;;;;;;7.08;95.52;101181.91;5049717;28;20032;-67
2022/04/22 03:49:09;;;;;;;6.43;4.03;;;;;;;7.07;96.55;101185.44;5028853;28;21931;-68
2022/04/22 03:51:35;;;;;;;7.43;3.75;;;;;;;7.04;95.76;101186.38;5031844;28;20593;-68
2022/04/22 03:54:01;;;;;;;6.70;3.75;;;;;;;7.01;95.45;101182.97;5047486;28;20523;-68
2022/04/22 03:59:10;;;;;;;7.28;4.03;;;;;;;6.96;95.63;101184.88;5041984;28;20074;-68
2022/04/22 04:01:36;;;;;;;6.20;3.72;;;;;;;6.93;95.68;101186.66;5048358;28;21928;-67
2022/04/22 04:04:01;;;;;;;5.35;3.83;;;;;;;6.89;95.57;101184.16;5050191;28;21397;-67
2022/04/22 04:06:27;;;;;;;7.57;4.00;;;;;;;6.88;95.68;101185.94;5050856;28;20773;-67
2022/04/22 04:17:10;;;;;;;8.50;4.30;;;;;;;6.70;96.17;101178.47;5050844;28;20028;-68
2022/04/22 04:25:04;;;;;;;5.95;3.55;;;;;;;6.56;95.98;101171.78;5051375;28;20033;-68
2022/04/22 04:27:29;;;;;;;6.22;4.03;;;;;;;6.53;96.51;101174.47;5050909;28;20032;-68
2022/04/22 04:29:55;;;;;;;9.02;3.70;;;;;;;6.51;96.21;101178.91;5047487;28;20028;-68
2022/04/22 04:32:21;;;;;;;5.18;3.90;;;;;;;6.49;96.62;101173.66;5047312;28;20448;-68
2022/04/22 04:34:46;;;;;;;6.78;4.00;;;;;;;6.47;96.50;101171.97;5048715;28;20167;-68
2022/04/22 04:37:12;;;;;;;8.00;4.50;;;;;;;6.46;96.68;101179.00;5050799;28;20036;-68
2022/04/22 04:39:38;;;;;;;8.07;4.28;;;;;;;6.47;97.67;101174.59;5049748;28;20090;-68
2022/04/22 04:42:04;;;;;;;7.35;4.30;;;;;;;6.46;97.49;101176.38;5051130;28;20040;-68
2022/04/22 04:44:30;;;;;;;7.78;4.03;;;;;;;6.47;97.18;101166.72;5050579;28;20032;-68
2022/04/22 04:46:56;;;;;;;7.03;3.90;;;;;;;6.47;97.79;101167.59;5049214;28;20037;-68
2022/04/22 04:49:21;;;;;;;5.70;3.38;;;;;;;6.47;98.51;101171.97;5050477;28;20416;-68
2022/04/22 04:51:47;;;;;;;10.27;4.30;;;;;;;6.47;97.66;101171.97;5048550;28;20033;-68
2022/04/22 04:54:12;;;;;;;9.48;3.97;;;;;;;6.47;97.64;101183.38;5050579;28;20590;-68
2022/04/22 04:56:38;;;;;;;5.40;3.47;;;;;;;6.46;97.54;101178.13;5050598;28;20032;-68
2022/04/22 04:59:03;;;;;;;5.90;3.65;;;;;;;6.46;98.22;101176.38;5050499;28;20540;-68
2022/04/22 05:01:29;;;;;;;5.85;3.80;;;;;;;6.46;97.35;101183.38;5051301;28;20124;-68
2022/04/22 05:03:54;;;;;;;9.02;3.92;;;;;;;6.45;98.12;101179.03;5052906;28;20032;-68
2022/04/22 05:06:19;;;;;;;5.75;3.85;;;;;;;6.45;97.69;101179.03;5053023;28;20025;-69
2022/04/22 05:08:45;;;;;;;5.15;3.60;;;;;;;6.47;98.10;101183.38;5052644;28;20044;-69
2022/04/22 05:11:11;;;;;;;6.70;3.85;;;;;;;6.47;97.53;101182.50;5053182;28;20035;-68
2022/04/22 05:13:37;;;;;;;10.23;4.32;;;;;;;6.48;97.48;101189.50;5051088;28;20647;-68
2022/04/22 05:16:02;;;;;;;7.15;3.60;;;;;;;6.50;98.21;101187.69;5053923;28;20090;-69
2022/04/22 05:18:29;;;;;;;6.13;3.67;;;;;;;6.52;97.92;101188.50;5065804;28;20021;-72
2022/04/22 05:20:55;;;;;;;4.60;3.20;;;;;;;6.55;98.05;101193.72;5048685;28;20428;-71
2022/04/22 05:23:21;;;;;;;6.70;3.60;;;;;;;6.56;97.61;101187.56;5052335;28;20025;-71
2022/04/22 05:25:47;;;;;;;7.47;3.60;;;;;;;6.58;97.21;101191.00;5063228;28;20515;-71
2022/04/22 05:28:12;;;;;;;7.40;3.47;;;;;;;6.61;97.23;101190.06;5072248;28;20029;-71
2022/04/22 05:33:22;;;;;;;5.70;3.40;;;;;;;6.67;96.68;101192.56;5063655;28;20479;-71
2022/04/22 05:35:47;;;;;;;6.85;3.15;;;;;;;6.73;97.31;101188.91;5068644;28;20044;-71
2022/04/22 05:38:15;;;;;;;4.82;3.28;;;;;;;6.79;97.30;101188.78;5069901;28;20024;-72
2022/04/22 05:40:41;;;;;;;8.15;3.50;;;;;;;6.82;96.80;101180.81;5071233;28;20124;-73
2022/04/22 05:43:07;;;;;;;5.95;3.17;;;;;;;6.86;96.23;101184.25;5068451;28;20158;-71
2022/04/22 05:45:34;;;;;;;4.93;3.47;;;;;;;6.90;96.34;101184.13;5061159;28;20021;-72
2022/04/22 05:47:59;;;;;;;5.70;2.90;;;;;;;6.95;96.17;101178.72;5052733;28;20049;-72
2022/04/22 05:50:26;;;;;;;6.55;3.13;;;;;;;7.00;95.97;101179.50;5065764;28;20025;-72
2022/04/22 05:52:52;;;;;;;5.82;3.00;;;;;;;7.05;96.24;101185.50;5070746;28;20028;-72
2022/04/22 05:55:20;;;;;;;5.53;2.95;;;;;;;7.12;96.19;101186.22;5070252;28;20035;-72
2022/04/22 05:57:48;;;;;;;4.05;2.55;;;;;;;7.18;96.06;101186.06;5087845;28;20096;-71
2022/04/22 06:00:15;;;;;;;4.60;2.80;;;;;;;7.24;95.08;101187.66;5070653;28;20033;-73
2022/04/22 06:02:42;;;;;;;5.38;3.13;;;;;;;7.26;94.66;101180.59;5070621;28;20021;-74
2022/04/22 06:05:13;;;;;;;4.28;2.67;;;;;;;7.30;93.85;101184.00;5070268;28;20024;-72
2022/04/22 06:07:39;;;;;;;6.13;3.13;;;;;;;7.37;94.46;101185.59;5070526;28;20054;-72
2022/04/22 06:12:50;;;;;;;5.18;2.95;;;;;;;7.61;93.93;101183.19;5046419;28;20510;-70
2022/04/22 06:15:16;;;;;;;3.47;2.42;;;;;;;7.83;93.02;101183.44;5045400;28;20035;-69
2022/04/22 06:17:41;;;;;;;4.45;2.88;;;;;;;8.00;92.09;101177.69;5048829;28;20087;-69
2022/04/22 06:20:08;;;;;;;6.07;2.58;;;;;;;8.12;91.28;101173.81;5048528;28;20839;-68
2022/04/22 06:22:33;;;;;;;4.70;3.40;;;;;;;8.26;90.86;101175.16;5051677;28;20032;-69
2022/04/22 06:24:59;;;;;;;3.88;2.38;;;;;;;8.37;89.81;101167.78;5052626;28;20514;-69
2022/04/22 06:27:29;;;;;;;5.93;3.20;;;;;;;8.50;89.22;101167.41;5052614;28;20119;-70
2022/04/22 06:29:56;;;;;;;3.15;2.40;;;;;;;8.65;88.94;101166.97;5051008;28;20120;-68
2022/04/22 06:32:22;;;;;;;4.25;2.45;;;;;;;8.80;88.48;101159.44;5051432;28;20091;-68
2022/04/22 06:34:52;;;;;;;3.45;2.25;;;;;;;8.93;88.24;101155.47;5050591;28;20101;-69
2022/04/22 06:37:17;;;;;;;4.93;2.60;;;;;;;9.05;86.35;101166.56;5051327;28;20252;-70
2022/04/22 06:47:57;;;;;;;2.33;2.13;;;;;;;9.36;84.77;101160.19;5050489;28;20499;-70
2022/04/22 06:50:23;;;;;;;2.75;1.98;;;;;;;9.46;84.22;101163.38;5049715;28;20032;-70
2022/04/22 06:52:49;;;;;;;4.00;2.15;;;;;;;9.56;83.91;101169.19;5052236;28;20040;-70
2022/04/22 06:55:16;;;;;;;3.80;2.15;;;;;;;9.59;84.20;101159.38;5050273;28;20098;-70
2022/04/22 06:57:46;;;;;;;2.75;2.00;;;;;;;9.68;82.69;101168.75;5051839;28;20043;-69
2022/04/22 07:00:13;;;;;;;3.00;1.83;;;;;;;9.77;82.31;101162.28;5062015;28;20039;-70
2022/04/22 07:02:39;;;;;;;2.85;2.15;;;;;;;9.89;82.99;101160.94;5062046;28;20040;-69
2022/04/22 07:05:05;;;;;;;2.28;1.70;;;;;;;9.99;81.76;101151.75;5051664;28;20574;-70
2022/04/22 07:07:31;;;;;;;2.28;1.55;;;;;;;10.01;79.85;101151.69;5033044;28;20384;-69
2022/04/22 07:09:57;;;;;;;1.83;1.58;;;;;;;10.10;81.73;101143.41;5050980;28;20373;-70
2022/04/22 07:12:26;;;;;;;2.60;1.92;;;;;;;10.26;81.11;101145.44;5049603;28;20056;-70
2022/04/22 07:14:58;;;;;;;2.15;1.90;;;;;;;10.38;81.36;101138.81;5051300;28;21975;-69
2022/04/22 07:17:23;;;;;;;3.55;1.90;;;;;;;10.41;80.11;101138.69;5049914;28;20503;-70
2022/04/22 07:19:49;;;;;;;2.70;1.80;;;;;;;10.40;79.98;101145.75;5052024;28;20141;-70
2022/04/22 07:22:15;;;;;;;3.30;1.92;;;;;;;10.51;80.46;101141.88;5050931;28;20101;-70
2022/04/22 07:24:40;;;;;;;3.05;1.60;;;;;;;10.54;78.62;101149.66;5045030;28;20029;-70
2022/04/22 07:27:06;;;;;;;2.63;1.65;;;;;;;10.48;76.41;101148.16;5048189;28;20233;-70
2022/04/22 07:29:33;;;;;;;1.80;1.52;;;;;;;10.50;77.81;101142.78;5050519;28;20360;-69
2022/04/22 07:31:59;;;;;;;1.40;1.25;;;;;;;10.52;78.11;101139.13;5048844;28;20631;-70
2022/04/22 07:34:24;;;;;;;4.07;1.77;;;;;;;10.50;78.00;101134.84;5032963;28;20032;-69
2022/04/22 07:36:50;;;;;;;3.15;1.70;;;;;;;10.50;79.36;101145.44;5050732;28;20093;-70
2022/04/22 07:39:16;;;;;;;1.85;1.58;;;;;;;10.55;78.67;101148.75;5051282;28;20425;-69
2022/04/22 07:41:42;;;;;;;2.35;1.70;;;;;;;10.58;78.08;101141.53;5048806;28;20115;-70
2022/04/22 07:46:58;;;;;;;1.80;1.52;;;;;;;10.80;79.22;101140.69;5049685;28;20052;-69
2022/04/22 07:49:25;;;;;;;1.52;1.40;;;;;;;10.92;78.51;101147.25;5049288;28;20036;-70
2022/04/22 07:51:50;;;;;;;3.20;1.70;;;;;;;10.96;76.81;101143.50;5049201;28;20139;-71
2022/04/22 07:54:16;;;;;;;2.10;1.70;;;;;;;11.02;76.61;101141.53;5049904;28;20097;-70
2022/04/22 07:56:42;;;;;;;1.92;1.63;;;;;;;11.06;77.56;101143.16;5050118;28;20407;-70
2022/04/22 07:59:08;;;;;;;2.25;1.60;;;;;;;11.17;76.63;101134.72;5049514;28;20036;-70
2022/04/22 08:01:33;;;;;;;2.22;1.50;;;;;;;11.28;75.97;101149.22;5050039;28;20037;-73
2022/04/22 08:03:59;;;;;;;2.50;1.55;;;;;;;11.30;76.42;101138.56;5050819;28;20036;-70
2022/04/22 08:06:25;;;;;;;2.47;1.80;;;;;;;11.38;75.95;101140.88;5050491;28;20032;-71
2022/04/22 08:08:51;;;;;;;2.63;1.50;;;;;;;11.48;75.23;101139.53;5050391;28;20064;-70
2022/04/22 08:11:16;;;;;;;2.55;1.65;;;;;;;11.57;74.14;101143.59;5050101;28;20029;-70
2022/04/22 08:13:42;;;;;;;1.83;1.40;;;;;;;11.66;73.68;101131.69;5050559;28;20037;-70
2022/04/22 08:16:07;;;;;;;1.50;1.30;;;;;;;11.72;74.30;101142.00;5050812;28;20025;-70
2022/04/22 08:18:33;;;;;;;2.55;1.70;;;;;;;11.85;73.89;101139.66;5050775;28;20021;-70
2022/04/22 08:20:58;;;;;;;1.70;1.50;;;;;;;12.00;73.94;101134.56;5048019;28;20049;-69
2022/04/22 08:23:24;;;;;;;3.65;1.80;;;;;;;12.15;73.17;101138.34;5032470;28;20681;-70
2022/04/22 08:25:50;;;;;;;4.10;1.95;;;;;;;12.26;73.06;101124.56;5049060;28;20025;-71
2022/04/22 08:28:15;;;;;;;1.60;1.50;;;;;;;12.31;71.82;101122.53;5063434;28;20120;-71
2022/04/22 08:30:41;;;;;;;3.90;1.50;;;;;;;12.33;71.71;101118.84;5044794;28;20029;-70
2022/04/22 08:33:06;;;;;;;3.85;1.80;;;;;;;12.39;70.59;101111.53;5050085;28;20032;-71
2022/04/22 08:35:35;;;;;;;2.25;1.60;;;;;;;12.36;71.21;101120.50;5032512;28;20126;-72
2022/04/22 08:38:03;;;;;;;1.67;1.40;;;;;;;12.41;70.40;101113.19;5051612;28;20035;-71
2022/04/22 08:40:30;;;;;;;1.50;1.38;;;;;;;12.48;71.23;101113.75;5053471;28;20051;-71
2022/04/22 08:43:00;;;;;;;3.08;1.65;;;;;;;12.49;70.64;101118.13;5054361;28;20028;-71
2022/04/22 08:45:26;;;;;;;1.58;1.40;;;;;;;12.65;71.42;101117.34;5052895;28;20036;-70
2022/04/22 08:50:37;;;;;;;2.40;1.63;;;;;;;12.88;68.28;101113.53;5054293;28;20556;-69
2022/04/22 08:53:04;;;;;;;1.92;1.70;;;;;;;12.94;68.67;101115.88;5069415;28;20037;-71
2022/04/22 08:55:32;;;;;;;1.90;1.55;;;;;;;12.98;69.17;101104.19;5054297;28;20041;-70
2022/04/22 08:58:03;;;;;;;1.90;1.40;;;;;;;13.12;69.57;101108.75;5054083;28;20090;-70
2022/04/22 09:00:30;;;;;;;5.43;2.25;;;;;;;13.33;70.17;101116.56;5054614;28;20036;-69
2022/04/22 09:02:57;;;;;;;3.33;1.60;;;;;;;13.43;68.73;101106.28;5053963;28;20025;-69
2022/04/22 09:05:24;;;;;;;2.72;1.80;;;;;;;13.36;67.93;101111.09;5069106;28;20115;-69
2022/04/22 09:07:50;;;;;;;1.50;1.35;;;;;;;13.37;66.97;101094.19;5036606;28;20049;-69
2022/04/22 09:10:16;;;;;;;2.20;1.55;;;;;;;13.37;68.29;101095.97;5052483;28;20067;-69
2022/04/22 09:12:52;;;;;;;1.40;1.30;;;;;;;13.38;66.15;101090.59;5053698;28;20487;-69
2022/04/22 09:15:22;;;;;;;1.55;1.45;;;;;;;13.30;65.80;101080.34;5051670;28;20024;-68
2022/04/22 09:17:47;;;;;;;2.47;1.50;;;;;;;13.23;67.43;101084.28;5052300;28;20085;-70
2022/04/22 09:20:15;;;;;;;2.85;1.42;;;;;;;13.28;68.24;101087.56;5052256;28;20033;-71
2022/04/22 09:22:41;;;;;;;2.67;1.50;;;;;;;13.29;66.32;101075.97;5033771;28;20032;-70
2022/04/22 09:25:06;;;;;;;2.75;1.60;;;;;;;13.27;66.55;101075.22;5064372;28;20037;-69
2022/04/22 09:27:35;;;;;;;1.83;1.48;;;;;;;13.33;67.19;101070.50;5053560;28;20043;-71
2022/04/22 09:30:02;;;;;;;2.90;1.70;;;;;;;13.42;67.19;101072.66;5053488;28;20120;-69
2022/04/22 09:32:30;;;;;;;2.20;1.40;;;;;;;13.55;65.80;101065.78;5068689;28;20032;-74
2022/04/22 09:34:58;;;;;;;1.98;1.40;;;;;;;13.58;65.28;101052.28;5051875;28;20093;-70
2022/04/22 09:42:57;;;;;;;2.80;1.35;;;;;;;13.84;66.71;101059.78;5053101;28;20040;-72
2022/04/22 09:45:34;;;;;;;1.85;1.33;;;;;;;13.86;64.75;101047.25;5052149;28;20037;-69
2022/04/22 09:48:00;;;;;;;2.85;1.45;;;;;;;13.94;66.73;101047.66;5051708;28;20043;-70
2022/04/22 09:50:52;;;;;;;2.15;1.48;;;;;;;14.04;61.87;101037.34;5051401;28;20024;-70
2022/04/22 09:53:19;;;;;;;3.28;1.50;;;;;;;14.11;64.07;101032.56;5051444;28;20036;-71
2022/04/22 09:55:49;;;;;;;1.85;1.38;;;;;;;13.99;63.02;101026.97;5052397;28;20663;-70
2022/04/22 09:58:41;;;;;;;2.03;1.50;;;;;;;13.98;62.29;101025.28;5051326;28;20490;-71
2022/04/22 10:01:07;;;;;;;1.50;1.40;;;;;;;14.06;62.57;101031.97;5049786;28;20672;-70
2022/04/22 10:03:37;;;;;;;1.75;1.25;;;;;;;14.05;62.22;101023.09;5036129;28;20028;-70
2022/04/22 10:06:04;;;;;;;1.35;1.25;;;;;;;14.03;62.53;101025.00;5048222;28;20128;-70
2022/04/22 10:08:31;;;;;;;2.45;1.30;;;;;;;14.01;61.76;101026.03;5051606;28;20049;-70
2022/04/22 10:10:59;;;;;;;2.97;1.70;;;;;;;14.01;61.07;101028.69;5051086;28;20035;-70
2022/04/22 10:13:33;;;;;;;1.85;1.30;;;;;;;14.06;61.56;101024.81;5051582;28;20033;-71
2022/04/22 10:15:59;;;;;;;1.35;1.25;;;;;;;14.15;61.35;101022.59;5049492;28;20036;-72
2022/04/22 10:18:26;;;;;;;2.25;1.38;;;;;;;14.01;60.65;101018.03;5051573;28;20067;-70
2022/04/22 10:20:51;;;;;;;1.50;1.40;;;;;;;13.92;61.42;101011.44;5051744;28;20139;-70
2022/04/22 10:23:17;;;;;;;1.80;1.40;;;;;;;13.87;60.70;101025.00;5050795;28;20112;-70
2022/04/22 10:25:43;;;;;;;2.15;1.50;;;;;;;13.78;60.05;101004.25;5050095;28;20483;-70
2022/04/22 10:28:10;;;;;;;1.50;1.30;;;;;;;13.70;61.36;100999.34;5050385;28;20071;-69
2022/04/22 10:30:38;;;;;;;2.42;1.55;;;;;;;13.73;61.02;100996.50;5050862;28;20446;-72
2022/04/22 10:33:05;;;;;;;1.92;1.35;;;;;;;13.75;60.95;100991.97;5062793;28;20105;-70
2022/04/22 10:35:38;;;;;;;1.60;1.45;;;;;;;13.73;59.40;100985.88;5063669;28;20487;-68
2022/04/22 10:38:04;;;;;;;2.15;1.63;;;;;;;13.70;60.54;100994.91;5042698;28;20032;-71
2022/04/22 10:40:29;;;;;;;1.98;1.60;;;;;;;13.76;61.90;101000.81;5047606;28;20128;-70
2022/04/22 10:42:58;;;;;;;2.53;1.50;;;;;;;13.80;62.68;101000.56;5046864;28;21887;-70
2022/04/22 10:48:19;;;;;;;3.28;1.65;;;;;;;13.70;62.52;101002.88;5047515;28;20134;-69
2022/04/22 10:51:00;;;;;;;4.10;1.75;;;;;;;13.78;62.96;100994.44;5047994;28;20024;-70
2022/04/22 10:53:33;;;;;;;2.08;1.60;;;;;;;13.86;63.22;100991.38;5049735;28;20590;-70
2022/04/22 10:56:23;;;;;;;2.95;1.80;;;;;;;13.85;63.22;100989.66;5049539;28;20070;-70
2022/04/22 10:59:21;;;;;;;2.13;1.75;;;;;;;13.78;63.90;100988.28;5049904;28;20510;-70
2022/04/22 11:01:52;;;;;;;3.17;1.88;;;;;;;13.79;65.66;100985.53;5050578;28;20115;-70
2022/04/22 11:04:28;;;;;;;2.53;1.50;;;;;;;13.76;64.35;100984.84;5048387;28;20756;-71
2022/04/22 11:06:54;;;;;;;2.28;1.60;;;;;;;13.85;64.29;100976.34;5047850;28;20032;-70
2022/04/22 11:09:30;;;;;;;2.95;1.95;;;;;;;13.88;65.73;100981.47;5047110;28;20908;-70
2022/04/22 11:11:57;;;;;;;4.45;2.30;;;;;;;13.94;65.32;100978.47;5048695;28;20068;-70
2022/04/22 11:14:27;;;;;;;4.25;2.13;;;;;;;13.88;66.01;100978.81;5050877;28;21047;-70
2022/04/22 11:16:54;;;;;;;3.08;2.10;;;;;;;13.80;66.60;100975.75;5031127;28;20547;-71
2022/04/22 11:19:19;;;;;;;4.90;2.03;;;;;;;13.75;66.86;100969.81;5050783;28;20034;-71
2022/04/22 11:21:47;;;;;;;3.28;2.35;;;;;;;13.76;67.43;100976.84;5051857;28;20623;-72
2022/04/22 11:24:20;;;;;;;2.38;1.85;;;;;;;13.79;67.90;100964.22;5050527;28;20040;-71
2022/04/22 11:26:46;;;;;;;3.55;2.30;;;;;;;13.73;66.71;100959.25;5051771;28;20036;-71
2022/04/22 11:29:13;;;;;;;3.85;2.75;;;;;;;13.64;68.07;100958.00;5049801;28;20673;-71
2022/04/22 11:31:39;;;;;;;3.67;2.40;;;;;;;13.66;68.94;100958.75;5062272;28;20044;-71
2022/04/22 11:34:09;;;;;;;2.70;1.90;;;;;;;13.74;68.71;100954.81;5050793;28;20047;-71
2022/04/22 11:36:42;;;;;;;3.63;2.42;;;;;;;13.67;68.16;100957.81;5027661;28;20082;-72
2022/04/22 11:39:12;;;;;;;3.80;2.35;;;;;;;13.68;69.19;100956.03;5049815;28;20120;-71
2022/04/22 11:41:53;;;;;;;5.80;2.60;;;;;;;13.71;69.99;100956.72;5033515;28;20391;-71
2022/04/22 11:44:21;;;;;;;4.38;2.58;;;;;;;13.68;69.28;100946.22;5051201;28;20033;-72
2022/04/22 11:46:46;;;;;;;3.35;2.42;;;;;;;13.71;69.83;100942.53;5062779;28;20039;-72
2022/04/22 11:49:13;;;;;;;7.40;2.65;;;;;;;13.76;70.46;100942.25;5051446;28;20041;-71
2022/04/22 11:51:39;;;;;;;4.70;2.75;;;;;;;13.80;70.37;100939.38;5050956;28;20069;-71
2022/04/22 11:54:05;;;;;;;3.95;2.58;;;;;;;13.81;69.81;100945.53;5050871;28;20494;-71
2022/04/22 11:56:30;;;;;;;5.45;2.55;;;;;;;13.80;68.97;100946.47;5049848;28;20035;-71
2022/04/22 11:58:57;;;;;;;4.82;2.35;;;;;;;13.80;69.73;100942.03;5050163;28;20151;-72
2022/04/22 12:07:01;;;;;;;4.00;2.17;;;;;;;13.96;68.24;100930.47;5050551;28;20044;-71
2022/04/22 12:09:28;;;;;;;4.68;2.50;;;;;;;13.99;66.94;100928.50;5050247;28;20486;-70
2022/04/22 12:11:57;;;;;;;4.50;2.30;;;;;;;14.03;66.40;100928.31;5043427;28;20514;-70
2022/04/22 12:14:25;;;;;;;2.40;2.13;;;;;;;14.05;66.59;100921.09;5032717;28;20127;-70
2022/04/22 12:16:54;;;;;;;3.40;2.50;;;;;;;14.01;67.31;100920.44;5047860;28;20031;-72
2022/04/22 12:19:20;;;;;;;2.80;2.28;;;;;;;14.06;67.79;100922.81;5049801;28;20032;-71
2022/04/22 12:21:45;;;;;;;2.65;2.33;;;;;;;14.07;67.31;100919.19;5050356;28;20033;-72
2022/04/22 12:24:15;;;;;;;5.05;3.10;;;;;;;14.11;67.92;100928.72;5050189;28;20043;-70
2022/04/22 12:26:40;;;;;;;4.13;2.50;;;;;;;14.16;68.59;100917.81;5050639;28;20028;-72
2022/04/22 12:29:16;;;;;;;5.13;2.28;;;;;;;14.24;66.36;100923.53;5050828;28;20035;-70
2022/04/22 12:31:43;;;;;;;4.93;2.65;;;;;;;14.30;64.79;100927.63;5049614;28;20033;-69
2022/04/22 12:34:10;;;;;;;5.10;2.20;;;;;;;14.35;63.69;100914.88;5066147;28;20063;-71